sensor_id;sensor_type;location;lat;lon;timestamp;pressure;altitude;pressure_sealevel;temperature;humidity
59859;BME280;45734;53.648;9.566;2022-09-27T00:00:26;99216.09;;;9.98;100.00
59859;BME280;45734;53.648;9.566;2022-09-27T00:05:27;99218.94;;;9.97;100.00
59859;BME280;45734;53.648;9.566;2022-09-27T00:10:28;99215.84;;;9.93;100.00
59859;BME280;45734;53.648;9.566;2022-09-27T00:15:29;99213.19;;;9.93;100.00
59859;BME280;45734;53.648;9.566;2022-09-27T00:20:29;99209.50;;;9.94;100.00
59859;BME280;45734;53.648;9.566;2022-09-27T00:25:29;99204.16;;;9.94;100.00
59859;BME280;45734;53.648;9.566;2022-09-27T00:30:30;99209.50;;;9.94;100.00
59859;BME280;45734;53.648;9.566;2022-09-27T00:35:30;99201.34;;;9.96;100.00
59859;BME280;45734;53.648;9.566;2022-09-27T00:40:30;99201.13;;;9.97;100.00
59859;BME280;45734;53.648;9.566;2022-09-27T00:45:31;99194.16;;;9.96;100.00
59859;BME280;45734;53.648;9.566;2022-09-27T00:50:40;99189.88;;;9.95;100.00
59859;BME280;45734;53.648;9.566;2022-09-27T00:56:04;99187.59;;;9.92;100.00
59859;BME280;45734;53.648;9.566;2022-09-27T01:01:07;99182.69;;;9.89;100.00
59859;BME280;45734;53.648;9.566;2022-09-27T01:06:13;99176.72;;;9.87;100.00
59859;BME280;45734;53.648;9.566;2022-09-27T01:11:17;99175.91;;;9.87;100.00
59859;BME280;45734;53.648;9.566;2022-09-27T01:21:43;99170.78;;;9.85;100.00
59859;BME280;45734;53.648;9.566;2022-09-27T01:27:08;99165.28;;;9.87;100.00
59859;BME280;45734;53.648;9.566;2022-09-27T01:43:08;99163.03;;;9.90;100.00
59859;BME280;45734;53.648;9.566;2022-09-27T01:48:22;99157.72;;;9.90;100.00
59859;BME280;45734;53.648;9.566;2022-09-27T01:53:35;99152.41;;;9.90;100.00
59859;BME280;45734;53.648;9.566;2022-09-27T01:58:43;99146.06;;;9.91;100.00
59859;BME280;45734;53.648;9.566;2022-09-27T02:03:48;99139.09;;;9.90;100.00
59859;BME280;45734;53.648;9.566;2022-09-27T02:08:58;99137.47;;;9.89;100.00
59859;BME280;45734;53.648;9.566;2022-09-27T02:14:11;99134.19;;;9.87;100.00
59859;BME280;45734;53.648;9.566;2022-09-27T02:24:38;99128.84;;;9.87;100.00
59859;BME280;45734;53.648;9.566;2022-09-27T02:29:45;99129.66;;;9.88;100.00
59859;BME280;45734;53.648;9.566;2022-09-27T02:34:47;99124.56;;;9.86;100.00
59859;BME280;45734;53.648;9.566;2022-09-27T02:39:49;99120.88;;;9.87;100.00
59859;BME280;45734;53.648;9.566;2022-09-27T02:44:50;99116.19;;;9.89;100.00
59859;BME280;45734;53.648;9.566;2022-09-27T02:50:01;99120.47;;;9.90;100.00
59859;BME280;45734;53.648;9.566;2022-09-27T02:55:17;99117.00;;;9.90;100.00
59859;BME280;45734;53.648;9.566;2022-09-27T03:00:20;99118.84;;;9.89;100.00
59859;BME280;45734;53.648;9.566;2022-09-27T03:05:24;99110.03;;;9.89;100.00
59859;BME280;45734;53.648;9.566;2022-09-27T03:10:27;99104.91;;;9.87;100.00
59859;BME280;45734;53.648;9.566;2022-09-27T03:15:28;99109.03;;;9.90;100.00
59859;BME280;45734;53.648;9.566;2022-09-27T03:20:28;99100.03;;;9.91;100.00
59859;BME280;45734;53.648;9.566;2022-09-27T03:25:28;99105.16;;;9.92;100.00
59859;BME280;45734;53.648;9.566;2022-09-27T03:30:29;99100.25;;;9.96;100.00
59859;BME280;45734;53.648;9.566;2022-09-27T03:35:29;99097.59;;;9.96;100.00
59859;BME280;45734;53.648;9.566;2022-09-27T03:40:30;99098.41;;;9.96;100.00
59859;BME280;45734;53.648;9.566;2022-09-27T03:45:30;99087.59;;;9.98;100.00
59859;BME280;45734;53.648;9.566;2022-09-27T03:50:30;99085.13;;;9.96;100.00
59859;BME280;45734;53.648;9.566;2022-09-27T03:55:31;99075.91;;;9.92;100.00
59859;BME280;45734;53.648;9.566;2022-09-27T04:00:31;99075.66;;;9.87;100.00
59859;BME280;45734;53.648;9.566;2022-09-27T04:05:32;99072.38;;;9.85;100.00
59859;BME280;45734;53.648;9.566;2022-09-27T04:10:32;99072.78;;;9.82;100.00
59859;BME280;45734;53.648;9.566;2022-09-27T04:15:33;99073.16;;;9.79;100.00
59859;BME280;45734;53.648;9.566;2022-09-27T04:20:34;99071.31;;;9.80;100.00
59859;BME280;45734;53.648;9.566;2022-09-27T04:25:35;99068.47;;;9.81;100.00
59859;BME280;45734;53.648;9.566;2022-09-27T04:30:35;99069.94;;;9.84;100.00
59859;BME280;45734;53.648;9.566;2022-09-27T04:35:36;99071.16;;;9.88;100.00
59859;BME280;45734;53.648;9.566;2022-09-27T04:40:55;99069.94;;;9.90;100.00
59859;BME280;45734;53.648;9.566;2022-09-27T04:45:55;99075.69;;;9.94;100.00
59859;BME280;45734;53.648;9.566;2022-09-27T04:50:57;99067.72;;;9.94;100.00
59859;BME280;45734;53.648;9.566;2022-09-27T04:55:58;99066.91;;;9.93;100.00
59859;BME280;45734;53.648;9.566;2022-09-27T05:01:01;99070.19;;;9.95;100.00
59859;BME280;45734;53.648;9.566;2022-09-27T05:06:03;99079.41;;;10.00;100.00
59859;BME280;45734;53.648;9.566;2022-09-27T05:11:03;99083.72;;;10.01;100.00
59859;BME280;45734;53.648;9.566;2022-09-27T05:16:04;99079.00;;;10.03;100.00
59859;BME280;45734;53.648;9.566;2022-09-27T05:21:04;99082.28;;;10.05;100.00
59859;BME280;45734;53.648;9.566;2022-09-27T05:26:06;99087.22;;;10.08;100.00
59859;BME280;45734;53.648;9.566;2022-09-27T05:31:06;99079.03;;;10.09;100.00
59859;BME280;45734;53.648;9.566;2022-09-27T05:36:07;99087.00;;;10.09;100.00
59859;BME280;45734;53.648;9.566;2022-09-27T05:41:08;99087.44;;;10.13;100.00
59859;BME280;45734;53.648;9.566;2022-09-27T05:46:09;99095.22;;;10.14;100.00
59859;BME280;45734;53.648;9.566;2022-09-27T05:51:09;99092.78;;;10.13;100.00
59859;BME280;45734;53.648;9.566;2022-09-27T05:56:10;99093.38;;;10.15;100.00
59859;BME280;45734;53.648;9.566;2022-09-27T06:01:10;99101.81;;;10.18;100.00
59859;BME280;45734;53.648;9.566;2022-09-27T06:06:10;99107.94;;;10.19;100.00
59859;BME280;45734;53.648;9.566;2022-09-27T06:11:11;99112.22;;;10.20;100.00
59859;BME280;45734;53.648;9.566;2022-09-27T06:16:12;99107.31;;;10.17;100.00
59859;BME280;45734;53.648;9.566;2022-09-27T06:21:12;99114.66;;;10.15;100.00
59859;BME280;45734;53.648;9.566;2022-09-27T06:26:12;99120.81;;;10.15;100.00
59859;BME280;45734;53.648;9.566;2022-09-27T06:31:13;99118.59;;;10.19;100.00
59859;BME280;45734;53.648;9.566;2022-09-27T06:36:14;99120.06;;;10.28;100.00
59859;BME280;45734;53.648;9.566;2022-09-27T06:41:15;99128.72;;;10.37;100.00
59859;BME280;45734;53.648;9.566;2022-09-27T06:46:15;99130.38;;;10.45;100.00
59859;BME280;45734;53.648;9.566;2022-09-27T06:51:16;99136.34;;;10.53;100.00
59859;BME280;45734;53.648;9.566;2022-09-27T06:56:16;99143.13;;;10.62;100.00
59859;BME280;45734;53.648;9.566;2022-09-27T07:01:16;99149.09;;;10.71;100.00
59859;BME280;45734;53.648;9.566;2022-09-27T07:06:19;99149.91;;;10.72;100.00
59859;BME280;45734;53.648;9.566;2022-09-27T07:11:22;99153.41;;;10.72;100.00
59859;BME280;45734;53.648;9.566;2022-09-27T07:16:22;99158.53;;;10.74;100.00
59859;BME280;45734;53.648;9.566;2022-09-27T07:21:23;99165.31;;;10.76;100.00
59859;BME280;45734;53.648;9.566;2022-09-27T07:26:23;99165.50;;;10.75;100.00
59859;BME280;45734;53.648;9.566;2022-09-27T07:31:23;99166.53;;;10.74;100.00
59859;BME280;45734;53.648;9.566;2022-09-27T07:36:24;99164.69;;;10.74;100.00
59859;BME280;45734;53.648;9.566;2022-09-27T07:41:24;99172.44;;;10.76;100.00
59859;BME280;45734;53.648;9.566;2022-09-27T07:46:25;99180.25;;;10.77;100.00
59859;BME280;45734;53.648;9.566;2022-09-27T07:51:25;99180.03;;;10.79;100.00
59859;BME280;45734;53.648;9.566;2022-09-27T07:56:26;99180.47;;;10.82;100.00
59859;BME280;45734;53.648;9.566;2022-09-27T08:01:26;99189.69;;;10.93;100.00
59859;BME280;45734;53.648;9.566;2022-09-27T08:06:28;99195.88;;;11.00;100.00
59859;BME280;45734;53.648;9.566;2022-09-27T08:11:28;99199.78;;;11.04;100.00
59859;BME280;45734;53.648;9.566;2022-09-27T08:16:32;99206.53;;;11.00;100.00
59859;BME280;45734;53.648;9.566;2022-09-27T08:21:33;99215.34;;;11.01;100.00
59859;BME280;45734;53.648;9.566;2022-09-27T08:26:34;99221.09;;;11.04;100.00
59859;BME280;45734;53.648;9.566;2022-09-27T08:31:34;99225.59;;;10.97;100.00
59859;BME280;45734;53.648;9.566;2022-09-27T08:36:34;99228.03;;;10.99;100.00
59859;BME280;45734;53.648;9.566;2022-09-27T08:41:40;99232.16;;;11.08;100.00
59859;BME280;45734;53.648;9.566;2022-09-27T08:47:13;99230.75;;;11.12;100.00
59859;BME280;45734;53.648;9.566;2022-09-27T08:52:51;99242.03;;;11.14;100.00
59859;BME280;45734;53.648;9.566;2022-09-27T08:57:55;99237.94;;;11.18;100.00
59859;BME280;45734;53.648;9.566;2022-09-27T09:02:56;99242.47;;;11.31;100.00
59859;BME280;45734;53.648;9.566;2022-09-27T09:13:08;99251.50;;;11.37;100.00
59859;BME280;45734;53.648;9.566;2022-09-27T09:29:00;99266.09;;;11.54;100.00
59859;BME280;45734;53.648;9.566;2022-09-27T09:34:17;99264.63;;;11.51;100.00
59859;BME280;45734;53.648;9.566;2022-09-27T09:39:25;99266.72;;;11.56;100.00
59859;BME280;45734;53.648;9.566;2022-09-27T09:50:00;99270.78;;;11.45;100.00
59859;BME280;45734;53.648;9.566;2022-09-27T09:55:06;99273.44;;;11.45;100.00
59859;BME280;45734;53.648;9.566;2022-09-27T10:00:15;99268.75;;;11.41;100.00
59859;BME280;45734;53.648;9.566;2022-09-27T10:05:21;99282.69;;;11.43;100.00
59859;BME280;45734;53.648;9.566;2022-09-27T10:10:22;99288.41;;;11.40;100.00
59859;BME280;45734;53.648;9.566;2022-09-27T10:15:26;99299.06;;;11.40;100.00
59859;BME280;45734;53.648;9.566;2022-09-27T10:20:40;99294.56;;;11.33;100.00
59859;BME280;45734;53.648;9.566;2022-09-27T10:25:48;99287.75;;;11.24;100.00
59859;BME280;45734;53.648;9.566;2022-09-27T10:30:54;99295.53;;;11.19;100.00
59859;BME280;45734;53.648;9.566;2022-09-27T10:35:57;99295.13;;;11.16;100.00
59859;BME280;45734;53.648;9.566;2022-09-27T10:41:40;99285.50;;;11.15;100.00
59859;BME280;45734;53.648;9.566;2022-09-27T10:46:46;99280.97;;;11.15;100.00
59859;BME280;45734;53.648;9.566;2022-09-27T10:51:50;99278.50;;;11.14;100.00
59859;BME280;45734;53.648;9.566;2022-09-27T10:56:59;99274.84;;;11.21;100.00
59859;BME280;45734;53.648;9.566;2022-09-27T11:02:00;99291.25;;;11.18;100.00
59859;BME280;45734;53.648;9.566;2022-09-27T11:07:13;99297.78;;;11.16;100.00
59859;BME280;45734;53.648;9.566;2022-09-27T11:12:15;99305.59;;;11.24;100.00
59859;BME280;45734;53.648;9.566;2022-09-27T11:44:19;99311.84;;;11.64;100.00
59859;BME280;45734;53.648;9.566;2022-09-27T11:49:46;99315.75;;;11.68;100.00
59859;BME280;45734;53.648;9.566;2022-09-27T12:00:02;99316.84;;;11.87;100.00
59859;BME280;45734;53.648;9.566;2022-09-27T12:10:42;99317.44;;;12.09;100.00
59859;BME280;45734;53.648;9.566;2022-09-27T12:15:46;99319.28;;;12.15;100.00
59859;BME280;45734;53.648;9.566;2022-09-27T12:20:47;99316.41;;;12.30;100.00
59859;BME280;45734;53.648;9.566;2022-09-27T12:25:51;99318.88;;;12.45;100.00
59859;BME280;45734;53.648;9.566;2022-09-27T12:30:57;99319.84;;;12.64;100.00
59859;BME280;45734;53.648;9.566;2022-09-27T12:36:04;99320.06;;;12.62;100.00
59859;BME280;45734;53.648;9.566;2022-09-27T12:41:07;99313.25;;;12.73;100.00
59859;BME280;45734;53.648;9.566;2022-09-27T12:51:30;99319.91;;;13.02;100.00
59859;BME280;45734;53.648;9.566;2022-09-27T12:57:02;99313.09;;;13.13;100.00
59859;BME280;45734;53.648;9.566;2022-09-27T13:08:26;99325.59;;;13.26;100.00
59859;BME280;45734;53.648;9.566;2022-09-27T13:13:31;99323.13;;;13.31;100.00
59859;BME280;45734;53.648;9.566;2022-09-27T13:28:58;99332.41;;;12.50;100.00
59859;BME280;45734;53.648;9.566;2022-09-27T13:34:01;99343.31;;;12.29;100.00
59859;BME280;45734;53.648;9.566;2022-09-27T13:39:04;99345.75;;;12.30;100.00
59859;BME280;45734;53.648;9.566;2022-09-27T13:44:14;99351.31;;;12.29;100.00
59859;BME280;45734;53.648;9.566;2022-09-27T13:49:28;99359.53;;;12.20;100.00
59859;BME280;45734;53.648;9.566;2022-09-27T13:54:39;99377.19;;;12.21;100.00
59859;BME280;45734;53.648;9.566;2022-09-27T13:59:49;99365.69;;;12.34;100.00
59859;BME280;45734;53.648;9.566;2022-09-27T14:04:55;99365.50;;;12.42;100.00
59859;BME280;45734;53.648;9.566;2022-09-27T14:09:57;99378.63;;;12.37;100.00
59859;BME280;45734;53.648;9.566;2022-09-27T14:15:00;99375.34;;;12.42;100.00
59859;BME280;45734;53.648;9.566;2022-09-27T14:20:02;99377.78;;;12.50;100.00
59859;BME280;45734;53.648;9.566;2022-09-27T14:25:15;99385.41;;;12.53;100.00
59859;BME280;45734;53.648;9.566;2022-09-27T14:30:19;99390.50;;;12.68;100.00
59859;BME280;45734;53.648;9.566;2022-09-27T14:35:25;99391.53;;;12.74;100.00
59859;BME280;45734;53.648;9.566;2022-09-27T14:45:51;99404.09;;;12.40;100.00
59859;BME280;45734;53.648;9.566;2022-09-27T14:50:58;99404.72;;;12.22;100.00
59859;BME280;45734;53.648;9.566;2022-09-27T14:56:02;99411.03;;;12.01;100.00
59859;BME280;45734;53.648;9.566;2022-09-27T15:01:03;99406.69;;;11.87;100.00
59859;BME280;45734;53.648;9.566;2022-09-27T15:06:04;99416.09;;;11.69;100.00
59859;BME280;45734;53.648;9.566;2022-09-27T15:11:05;99418.31;;;11.59;100.00
59859;BME280;45734;53.648;9.566;2022-09-27T15:16:08;99419.28;;;11.51;100.00
59859;BME280;45734;53.648;9.566;2022-09-27T15:21:15;99424.78;;;11.37;100.00
59859;BME280;45734;53.648;9.566;2022-09-27T15:26:40;99413.84;;;11.25;100.00
59859;BME280;45734;53.648;9.566;2022-09-27T15:31:41;99412.59;;;11.14;100.00
59859;BME280;45734;53.648;9.566;2022-09-27T15:36:49;99422.59;;;11.05;100.00
59859;BME280;45734;53.648;9.566;2022-09-27T15:52:43;99439.13;;;10.94;100.00
59859;BME280;45734;53.648;9.566;2022-09-27T15:57:51;99443.81;;;10.92;100.00
59859;BME280;45734;53.648;9.566;2022-09-27T16:02:53;99443.78;;;10.85;100.00
59859;BME280;45734;53.648;9.566;2022-09-27T16:07:53;99458.25;;;10.76;100.00
59859;BME280;45734;53.648;9.566;2022-09-27T16:12:53;99459.22;;;10.69;100.00
59859;BME280;45734;53.648;9.566;2022-09-27T16:17:53;99471.22;;;10.58;100.00
59859;BME280;45734;53.648;9.566;2022-09-27T16:22:54;99468.88;;;10.48;100.00
59859;BME280;45734;53.648;9.566;2022-09-27T16:28:02;99475.16;;;10.40;100.00
59859;BME280;45734;53.648;9.566;2022-09-27T16:33:03;99476.31;;;10.31;100.00
59859;BME280;45734;53.648;9.566;2022-09-27T16:38:03;99476.22;;;10.25;100.00
59859;BME280;45734;53.648;9.566;2022-09-27T16:43:04;99480.63;;;10.17;100.00
59859;BME280;45734;53.648;9.566;2022-09-27T16:48:06;99482.22;;;10.12;100.00
59859;BME280;45734;53.648;9.566;2022-09-27T16:53:06;99485.84;;;10.04;100.00
59859;BME280;45734;53.648;9.566;2022-09-27T16:58:07;99488.22;;;9.99;100.00
59859;BME280;45734;53.648;9.566;2022-09-27T17:03:08;99484.91;;;9.97;100.00
59859;BME280;45734;53.648;9.566;2022-09-27T17:08:09;99496.13;;;9.92;100.00
59859;BME280;45734;53.648;9.566;2022-09-27T17:13:09;99491.19;;;9.89;100.00
59859;BME280;45734;53.648;9.566;2022-09-27T17:18:10;99492.56;;;9.85;100.00
59859;BME280;45734;53.648;9.566;2022-09-27T17:23:11;99488.44;;;9.83;100.00
59859;BME280;45734;53.648;9.566;2022-09-27T17:28:11;99491.03;;;9.76;100.00
59859;BME280;45734;53.648;9.566;2022-09-27T17:33:12;99503.06;;;9.72;100.00
59859;BME280;45734;53.648;9.566;2022-09-27T17:38:12;99497.25;;;9.68;100.00
59859;BME280;45734;53.648;9.566;2022-09-27T17:43:12;99507.44;;;9.65;100.00
59859;BME280;45734;53.648;9.566;2022-09-27T17:48:14;99519.47;;;9.61;100.00
59859;BME280;45734;53.648;9.566;2022-09-27T17:53:33;99511.22;;;9.56;100.00
59859;BME280;45734;53.648;9.566;2022-09-27T17:58:33;99522.41;;;9.51;100.00
59859;BME280;45734;53.648;9.566;2022-09-27T18:03:33;99516.63;;;9.47;100.00
59859;BME280;45734;53.648;9.566;2022-09-27T18:08:34;99521.50;;;9.44;100.00
59859;BME280;45734;53.648;9.566;2022-09-27T18:13:34;99523.69;;;9.40;100.00
59859;BME280;45734;53.648;9.566;2022-09-27T18:18:41;99522.22;;;9.38;100.00
59859;BME280;45734;53.648;9.566;2022-09-27T18:23:42;99525.06;;;9.36;100.00
59859;BME280;45734;53.648;9.566;2022-09-27T18:28:43;99523.78;;;9.32;100.00
59859;BME280;45734;53.648;9.566;2022-09-27T18:33:43;99517.19;;;9.28;100.00
59859;BME280;45734;53.648;9.566;2022-09-27T18:38:45;99528.00;;;9.26;100.00
59859;BME280;45734;53.648;9.566;2022-09-27T18:43:46;99522.41;;;9.21;100.00
59859;BME280;45734;53.648;9.566;2022-09-27T18:48:46;99521.94;;;9.18;100.00
59859;BME280;45734;53.648;9.566;2022-09-27T18:53:47;99531.75;;;9.17;100.00
59859;BME280;45734;53.648;9.566;2022-09-27T18:58:47;99526.97;;;9.13;100.00
59859;BME280;45734;53.648;9.566;2022-09-27T19:03:48;99530.81;;;9.10;100.00
59859;BME280;45734;53.648;9.566;2022-09-27T19:08:53;99529.16;;;9.09;100.00
59859;BME280;45734;53.648;9.566;2022-09-27T19:13:56;99534.84;;;9.06;100.00
59859;BME280;45734;53.648;9.566;2022-09-27T19:18:56;99534.38;;;9.02;100.00
59859;BME280;45734;53.648;9.566;2022-09-27T19:23:57;99536.59;;;8.99;100.00
59859;BME280;45734;53.648;9.566;2022-09-27T19:28:57;99535.75;;;8.98;100.00
59859;BME280;45734;53.648;9.566;2022-09-27T19:33:58;99529.81;;;8.96;100.00
59859;BME280;45734;53.648;9.566;2022-09-27T19:38:58;99541.25;;;8.97;100.00
59859;BME280;45734;53.648;9.566;2022-09-27T19:44:00;99536.75;;;8.97;100.00
59859;BME280;45734;53.648;9.566;2022-09-27T19:49:00;99540.06;;;8.99;100.00
59859;BME280;45734;53.648;9.566;2022-09-27T19:54:01;99541.03;;;8.98;100.00
59859;BME280;45734;53.648;9.566;2022-09-27T19:59:01;99543.91;;;8.97;100.00
59859;BME280;45734;53.648;9.566;2022-09-27T20:04:01;99544.06;;;8.95;100.00
59859;BME280;45734;53.648;9.566;2022-09-27T20:09:02;99547.75;;;8.94;100.00
59859;BME280;45734;53.648;9.566;2022-09-27T20:14:02;99541.97;;;8.91;100.00
59859;BME280;45734;53.648;9.566;2022-09-27T20:19:03;99538.81;;;8.87;100.00
59859;BME280;45734;53.648;9.566;2022-09-27T20:24:04;99543.50;;;8.85;100.00
59859;BME280;45734;53.648;9.566;2022-09-27T20:29:05;99545.03;;;8.79;100.00
59859;BME280;45734;53.648;9.566;2022-09-27T20:34:08;99542.91;;;8.75;100.00
59859;BME280;45734;53.648;9.566;2022-09-27T20:39:11;99540.16;;;8.68;100.00
59859;BME280;45734;53.648;9.566;2022-09-27T20:44:14;99535.72;;;8.60;100.00
59859;BME280;45734;53.648;9.566;2022-09-27T20:49:17;99539.75;;;8.56;100.00
59859;BME280;45734;53.648;9.566;2022-09-27T20:54:17;99533.47;;;8.49;100.00
59859;BME280;45734;53.648;9.566;2022-09-27T20:59:19;99529.91;;;8.42;100.00
59859;BME280;45734;53.648;9.566;2022-09-27T21:04:20;99522.78;;;8.34;100.00
59859;BME280;45734;53.648;9.566;2022-09-27T21:09:21;99519.84;;;8.29;100.00
59859;BME280;45734;53.648;9.566;2022-09-27T21:14:21;99534.81;;;8.22;100.00
59859;BME280;45734;53.648;9.566;2022-09-27T21:19:22;99525.09;;;8.14;100.00
59859;BME280;45734;53.648;9.566;2022-09-27T21:24:22;99535.88;;;8.13;100.00
59859;BME280;45734;53.648;9.566;2022-09-27T21:29:22;99536.03;;;8.11;100.00
59859;BME280;45734;53.648;9.566;2022-09-27T21:34:22;99542.34;;;8.10;100.00
59859;BME280;45734;53.648;9.566;2022-09-27T21:39:23;99547.63;;;8.10;100.00
59859;BME280;45734;53.648;9.566;2022-09-27T21:44:23;99543.34;;;8.09;100.00
59859;BME280;45734;53.648;9.566;2022-09-27T21:49:23;99547.47;;;8.12;100.00
59859;BME280;45734;53.648;9.566;2022-09-27T21:54:24;99547.84;;;8.09;100.00
59859;BME280;45734;53.648;9.566;2022-09-27T21:59:24;99557.78;;;8.07;100.00
59859;BME280;45734;53.648;9.566;2022-09-27T22:04:24;99556.47;;;8.03;100.00
59859;BME280;45734;53.648;9.566;2022-09-27T22:09:25;99553.53;;;7.98;100.00
59859;BME280;45734;53.648;9.566;2022-09-27T22:14:25;99549.41;;;7.87;100.00
59859;BME280;45734;53.648;9.566;2022-09-27T22:19:25;99560.25;;;7.77;100.00
59859;BME280;45734;53.648;9.566;2022-09-27T22:24:26;99558.78;;;7.66;100.00
59859;BME280;45734;53.648;9.566;2022-09-27T22:29:26;99553.84;;;7.55;100.00
59859;BME280;45734;53.648;9.566;2022-09-27T22:34:26;99558.81;;;7.50;100.00
59859;BME280;45734;53.648;9.566;2022-09-27T22:39:30;99557.03;;;7.42;100.00
59859;BME280;45734;53.648;9.566;2022-09-27T22:44:30;99557.38;;;7.39;100.00
59859;BME280;45734;53.648;9.566;2022-09-27T22:49:32;99546.47;;;7.34;100.00
59859;BME280;45734;53.648;9.566;2022-09-27T22:54:32;99556.88;;;7.36;100.00
59859;BME280;45734;53.648;9.566;2022-09-27T22:59:33;99556.25;;;7.34;100.00
59859;BME280;45734;53.648;9.566;2022-09-27T23:04:33;99546.13;;;7.29;100.00
59859;BME280;45734;53.648;9.566;2022-09-27T23:09:33;99550.63;;;7.29;100.00
59859;BME280;45734;53.648;9.566;2022-09-27T23:14:33;99535.22;;;7.24;100.00
59859;BME280;45734;53.648;9.566;2022-09-27T23:19:34;99543.34;;;7.22;100.00
59859;BME280;45734;53.648;9.566;2022-09-27T23:24:34;99538.19;;;7.21;100.00
59859;BME280;45734;53.648;9.566;2022-09-27T23:29:34;99542.00;;;7.18;100.00
59859;BME280;45734;53.648;9.566;2022-09-27T23:34:35;99538.88;;;7.15;100.00
59859;BME280;45734;53.648;9.566;2022-09-27T23:39:35;99540.91;;;7.13;100.00
59859;BME280;45734;53.648;9.566;2022-09-27T23:44:35;99536.09;;;7.08;100.00
59859;BME280;45734;53.648;9.566;2022-09-27T23:49:36;99539.06;;;7.05;100.00
59859;BME280;45734;53.648;9.566;2022-09-27T23:54:36;99535.75;;;7.03;100.00
59859;BME280;45734;53.648;9.566;2022-09-27T23:59:36;99521.84;;;7.01;100.00
